Souk-El Arba, Tunisia
Current Conditions -  °F | °C
As of 3:00 AM on Tuesday 21 Oct 2014 (Local Time) from DTTN Reporting Station
Clear Clear  
Wind Chill: 59°   Ceiling: Unl
Heat Index: 59°   Visibility: 5mi
Dew Point: 54°   Wind: 5mph
Humidity: 82%   Direction: 210°SSW
Pressure: 30.09"   Gusts: NA
Location:  36.5°N, 8.77°E
Report Text: DTTN 210200Z 21004KT 8000 NSC 15/12 Q1019
Loading
Personal Weather Stations






























Interactive Weather Map
Tropical Storm Tracking
New forecast layout! Learn more

10-Day Weather Forecast

Advertisements
Track Severe Weather on mobile